sensor_id;sensor_type;location;lat;lon;timestamp;P1;durP1;ratioP1;P2;durP2;ratioP2
15488;SDS011;7846;48.830;9.116;2023-02-21T00:01:34;8.20;;;4.63;;
15488;SDS011;7846;48.830;9.116;2023-02-21T00:04:17;6.23;;;4.10;;
15488;SDS011;7846;48.830;9.116;2023-02-21T00:07:01;8.97;;;3.70;;
15488;SDS011;7846;48.830;9.116;2023-02-21T00:09:45;5.30;;;3.83;;
15488;SDS011;7846;48.830;9.116;2023-02-21T00:12:29;6.33;;;3.53;;
15488;SDS011;7846;48.830;9.116;2023-02-21T00:15:14;7.33;;;3.50;;
15488;SDS011;7846;48.830;9.116;2023-02-21T00:17:58;6.70;;;3.50;;
15488;SDS011;7846;48.830;9.116;2023-02-21T00:20:42;6.87;;;3.30;;
15488;SDS011;7846;48.830;9.116;2023-02-21T00:23:25;4.77;;;3.10;;
15488;SDS011;7846;48.830;9.116;2023-02-21T00:26:09;7.77;;;3.70;;
15488;SDS011;7846;48.830;9.116;2023-02-21T00:28:53;5.20;;;3.23;;
15488;SDS011;7846;48.830;9.116;2023-02-21T00:31:37;7.50;;;3.73;;
15488;SDS011;7846;48.830;9.116;2023-02-21T00:34:21;6.80;;;4.00;;
15488;SDS011;7846;48.830;9.116;2023-02-21T00:37:05;4.83;;;3.00;;
15488;SDS011;7846;48.830;9.116;2023-02-21T00:39:50;5.53;;;3.20;;
15488;SDS011;7846;48.830;9.116;2023-02-21T00:42:34;6.63;;;3.40;;
15488;SDS011;7846;48.830;9.116;2023-02-21T00:45:18;4.93;;;3.10;;
15488;SDS011;7846;48.830;9.116;2023-02-21T00:48:04;4.63;;;3.10;;
15488;SDS011;7846;48.830;9.116;2023-02-21T00:50:47;4.17;;;3.10;;
15488;SDS011;7846;48.830;9.116;2023-02-21T00:53:31;4.30;;;2.93;;
15488;SDS011;7846;48.830;9.116;2023-02-21T00:56:15;3.33;;;2.80;;
15488;SDS011;7846;48.830;9.116;2023-02-21T00:58:59;4.63;;;2.80;;
15488;SDS011;7846;48.830;9.116;2023-02-21T01:01:43;3.97;;;2.73;;
15488;SDS011;7846;48.830;9.116;2023-02-21T01:04:26;5.37;;;2.80;;
15488;SDS011;7846;48.830;9.116;2023-02-21T01:07:11;5.17;;;3.10;;
15488;SDS011;7846;48.830;9.116;2023-02-21T01:09:55;4.27;;;2.90;;
15488;SDS011;7846;48.830;9.116;2023-02-21T01:12:39;3.97;;;3.10;;
15488;SDS011;7846;48.830;9.116;2023-02-21T01:15:24;3.97;;;2.70;;
15488;SDS011;7846;48.830;9.116;2023-02-21T01:18:08;6.50;;;2.93;;
15488;SDS011;7846;48.830;9.116;2023-02-21T01:20:52;5.57;;;3.20;;
15488;SDS011;7846;48.830;9.116;2023-02-21T01:23:35;6.20;;;3.30;;
15488;SDS011;7846;48.830;9.116;2023-02-21T01:26:19;4.67;;;3.00;;
15488;SDS011;7846;48.830;9.116;2023-02-21T01:29:03;4.83;;;3.00;;
15488;SDS011;7846;48.830;9.116;2023-02-21T01:31:48;6.10;;;2.90;;
15488;SDS011;7846;48.830;9.116;2023-02-21T01:34:32;4.13;;;2.60;;
15488;SDS011;7846;48.830;9.116;2023-02-21T01:37:17;5.43;;;2.53;;
15488;SDS011;7846;48.830;9.116;2023-02-21T01:40:02;3.93;;;2.80;;
15488;SDS011;7846;48.830;9.116;2023-02-21T01:42:46;2.83;;;2.50;;
15488;SDS011;7846;48.830;9.116;2023-02-21T01:48:20;4.00;;;2.63;;
15488;SDS011;7846;48.830;9.116;2023-02-21T01:51:07;3.83;;;2.60;;
15488;SDS011;7846;48.830;9.116;2023-02-21T01:53:55;4.87;;;2.97;;
15488;SDS011;7846;48.830;9.116;2023-02-21T01:56:39;4.97;;;2.60;;
15488;SDS011;7846;48.830;9.116;2023-02-21T01:59:23;3.50;;;2.67;;
15488;SDS011;7846;48.830;9.116;2023-02-21T02:02:16;9.77;;;3.73;;
15488;SDS011;7846;48.830;9.116;2023-02-21T02:05:05;11.33;;;4.00;;
15488;SDS011;7846;48.830;9.116;2023-02-21T02:07:52;9.20;;;3.90;;
15488;SDS011;7846;48.830;9.116;2023-02-21T02:10:37;5.90;;;2.90;;
15488;SDS011;7846;48.830;9.116;2023-02-21T02:13:28;8.93;;;3.30;;
15488;SDS011;7846;48.830;9.116;2023-02-21T02:19:23;7.83;;;3.10;;
15488;SDS011;7846;48.830;9.116;2023-02-21T02:28:42;6.60;;;3.00;;
15488;SDS011;7846;48.830;9.116;2023-02-21T02:39:54;6.10;;;3.20;;
15488;SDS011;7846;48.830;9.116;2023-02-21T02:42:30;6.40;;;3.00;;
15488;SDS011;7846;48.830;9.116;2023-02-21T02:45:13;7.77;;;3.10;;
15488;SDS011;7846;48.830;9.116;2023-02-21T02:48:36;4.67;;;2.87;;
15488;SDS011;7846;48.830;9.116;2023-02-21T02:50:48;12.87;;;3.60;;
15488;SDS011;7846;48.830;9.116;2023-02-21T02:53:18;16.40;;;3.77;;
15488;SDS011;7846;48.830;9.116;2023-02-21T02:55:56;9.80;;;3.53;;
15488;SDS011;7846;48.830;9.116;2023-02-21T02:58:28;9.90;;;3.17;;
15488;SDS011;7846;48.830;9.116;2023-02-21T03:09:37;8.37;;;3.50;;
15488;SDS011;7846;48.830;9.116;2023-02-21T03:12:03;7.20;;;3.37;;
15488;SDS011;7846;48.830;9.116;2023-02-21T03:14:35;6.00;;;3.10;;
15488;SDS011;7846;48.830;9.116;2023-02-21T03:17:06;5.50;;;3.23;;
15488;SDS011;7846;48.830;9.116;2023-02-21T03:19:37;7.83;;;3.17;;
15488;SDS011;7846;48.830;9.116;2023-02-21T03:22:10;6.97;;;3.50;;
15488;SDS011;7846;48.830;9.116;2023-02-21T03:24:55;6.30;;;3.17;;
15488;SDS011;7846;48.830;9.116;2023-02-21T03:27:24;7.87;;;2.90;;
15488;SDS011;7846;48.830;9.116;2023-02-21T03:29:50;7.53;;;3.57;;
15488;SDS011;7846;48.830;9.116;2023-02-21T03:32:23;7.83;;;3.27;;
15488;SDS011;7846;48.830;9.116;2023-02-21T03:34:52;8.73;;;2.90;;
15488;SDS011;7846;48.830;9.116;2023-02-21T03:37:27;6.40;;;3.23;;
15488;SDS011;7846;48.830;9.116;2023-02-21T03:39:56;8.93;;;3.20;;
15488;SDS011;7846;48.830;9.116;2023-02-21T03:42:22;6.77;;;3.50;;
15488;SDS011;7846;48.830;9.116;2023-02-21T03:44:47;9.50;;;3.63;;
15488;SDS011;7846;48.830;9.116;2023-02-21T03:47:14;8.37;;;3.37;;
15488;SDS011;7846;48.830;9.116;2023-02-21T03:49:39;7.80;;;3.40;;
15488;SDS011;7846;48.830;9.116;2023-02-21T03:52:06;6.67;;;3.30;;
15488;SDS011;7846;48.830;9.116;2023-02-21T03:54:33;8.07;;;3.47;;
15488;SDS011;7846;48.830;9.116;2023-02-21T03:56:58;9.33;;;3.60;;
15488;SDS011;7846;48.830;9.116;2023-02-21T03:59:23;7.00;;;2.97;;
15488;SDS011;7846;48.830;9.116;2023-02-21T04:01:49;8.27;;;3.23;;
15488;SDS011;7846;48.830;9.116;2023-02-21T04:04:14;5.13;;;3.03;;
15488;SDS011;7846;48.830;9.116;2023-02-21T04:06:41;5.93;;;3.43;;
15488;SDS011;7846;48.830;9.116;2023-02-21T04:09:06;5.40;;;3.30;;
15488;SDS011;7846;48.830;9.116;2023-02-21T04:11:32;5.33;;;3.37;;
15488;SDS011;7846;48.830;9.116;2023-02-21T04:13:57;5.33;;;3.17;;
15488;SDS011;7846;48.830;9.116;2023-02-21T04:16:23;4.53;;;3.40;;
15488;SDS011;7846;48.830;9.116;2023-02-21T04:18:49;7.37;;;3.20;;
15488;SDS011;7846;48.830;9.116;2023-02-21T04:21:17;5.67;;;3.27;;
15488;SDS011;7846;48.830;9.116;2023-02-21T04:23:45;5.13;;;3.17;;
15488;SDS011;7846;48.830;9.116;2023-02-21T04:26:11;6.93;;;3.30;;
15488;SDS011;7846;48.830;9.116;2023-02-21T04:28:37;5.50;;;3.00;;
15488;SDS011;7846;48.830;9.116;2023-02-21T04:31:03;4.87;;;3.30;;
15488;SDS011;7846;48.830;9.116;2023-02-21T04:33:29;4.63;;;3.23;;
15488;SDS011;7846;48.830;9.116;2023-02-21T04:35:54;5.17;;;3.07;;
15488;SDS011;7846;48.830;9.116;2023-02-21T04:38:20;5.00;;;3.37;;
15488;SDS011;7846;48.830;9.116;2023-02-21T04:40:45;3.97;;;3.00;;
15488;SDS011;7846;48.830;9.116;2023-02-21T04:43:10;5.20;;;2.93;;
15488;SDS011;7846;48.830;9.116;2023-02-21T04:45:36;5.40;;;3.53;;
15488;SDS011;7846;48.830;9.116;2023-02-21T04:48:01;7.87;;;3.20;;
15488;SDS011;7846;48.830;9.116;2023-02-21T04:50:27;5.57;;;3.20;;
15488;SDS011;7846;48.830;9.116;2023-02-21T04:52:54;3.67;;;2.87;;
15488;SDS011;7846;48.830;9.116;2023-02-21T04:55:20;5.63;;;3.30;;
15488;SDS011;7846;48.830;9.116;2023-02-21T04:57:46;8.50;;;3.50;;
15488;SDS011;7846;48.830;9.116;2023-02-21T05:00:11;7.83;;;3.67;;
15488;SDS011;7846;48.830;9.116;2023-02-21T05:02:41;7.33;;;3.53;;
15488;SDS011;7846;48.830;9.116;2023-02-21T05:05:09;9.37;;;3.70;;
15488;SDS011;7846;48.830;9.116;2023-02-21T05:07:36;3.37;;;2.93;;
15488;SDS011;7846;48.830;9.116;2023-02-21T05:10:02;6.17;;;3.47;;
15488;SDS011;7846;48.830;9.116;2023-02-21T05:12:29;6.63;;;3.60;;
15488;SDS011;7846;48.830;9.116;2023-02-21T05:14:55;6.87;;;3.40;;
15488;SDS011;7846;48.830;9.116;2023-02-21T05:17:20;8.20;;;3.43;;
15488;SDS011;7846;48.830;9.116;2023-02-21T05:19:46;8.73;;;3.50;;
15488;SDS011;7846;48.830;9.116;2023-02-21T05:22:12;9.77;;;3.80;;
15488;SDS011;7846;48.830;9.116;2023-02-21T05:24:41;6.57;;;3.80;;
15488;SDS011;7846;48.830;9.116;2023-02-21T05:27:07;8.87;;;3.40;;
15488;SDS011;7846;48.830;9.116;2023-02-21T05:29:35;6.73;;;3.47;;
15488;SDS011;7846;48.830;9.116;2023-02-21T05:32:01;7.50;;;3.23;;
15488;SDS011;7846;48.830;9.116;2023-02-21T05:34:29;8.43;;;3.40;;
15488;SDS011;7846;48.830;9.116;2023-02-21T05:36:55;7.77;;;3.20;;
15488;SDS011;7846;48.830;9.116;2023-02-21T05:39:20;6.30;;;3.17;;
15488;SDS011;7846;48.830;9.116;2023-02-21T05:41:49;13.30;;;3.57;;
15488;SDS011;7846;48.830;9.116;2023-02-21T05:44:16;9.40;;;3.33;;
15488;SDS011;7846;48.830;9.116;2023-02-21T05:46:42;7.20;;;3.10;;
15488;SDS011;7846;48.830;9.116;2023-02-21T05:49:08;7.97;;;3.03;;
15488;SDS011;7846;48.830;9.116;2023-02-21T05:51:38;6.97;;;2.77;;
15488;SDS011;7846;48.830;9.116;2023-02-21T05:54:05;7.93;;;3.23;;
15488;SDS011;7846;48.830;9.116;2023-02-21T05:56:37;7.13;;;3.47;;
15488;SDS011;7846;48.830;9.116;2023-02-21T05:59:04;7.20;;;3.17;;
15488;SDS011;7846;48.830;9.116;2023-02-21T06:01:30;6.93;;;3.30;;
15488;SDS011;7846;48.830;9.116;2023-02-21T06:03:56;7.50;;;3.17;;
15488;SDS011;7846;48.830;9.116;2023-02-21T06:06:21;6.20;;;2.97;;
15488;SDS011;7846;48.830;9.116;2023-02-21T06:08:47;5.53;;;3.03;;
15488;SDS011;7846;48.830;9.116;2023-02-21T06:11:14;6.03;;;3.47;;
15488;SDS011;7846;48.830;9.116;2023-02-21T06:13:45;5.33;;;3.07;;
15488;SDS011;7846;48.830;9.116;2023-02-21T06:16:11;6.47;;;3.40;;
15488;SDS011;7846;48.830;9.116;2023-02-21T06:18:36;9.47;;;3.67;;
15488;SDS011;7846;48.830;9.116;2023-02-21T06:21:01;7.83;;;3.57;;
15488;SDS011;7846;48.830;9.116;2023-02-21T06:23:27;7.83;;;3.23;;
15488;SDS011;7846;48.830;9.116;2023-02-21T06:25:53;9.37;;;4.00;;
15488;SDS011;7846;48.830;9.116;2023-02-21T06:28:20;10.27;;;4.07;;
15488;SDS011;7846;48.830;9.116;2023-02-21T06:30:45;7.23;;;3.80;;
15488;SDS011;7846;48.830;9.116;2023-02-21T06:33:10;8.07;;;3.57;;
15488;SDS011;7846;48.830;9.116;2023-02-21T06:35:36;10.57;;;4.23;;
15488;SDS011;7846;48.830;9.116;2023-02-21T06:38:03;5.57;;;3.63;;
15488;SDS011;7846;48.830;9.116;2023-02-21T06:40:28;7.97;;;3.73;;
15488;SDS011;7846;48.830;9.116;2023-02-21T06:42:54;6.13;;;3.60;;
15488;SDS011;7846;48.830;9.116;2023-02-21T06:45:20;9.93;;;3.43;;
15488;SDS011;7846;48.830;9.116;2023-02-21T06:47:45;12.40;;;3.77;;
15488;SDS011;7846;48.830;9.116;2023-02-21T06:50:13;9.07;;;3.97;;
15488;SDS011;7846;48.830;9.116;2023-02-21T06:52:38;7.57;;;4.07;;
15488;SDS011;7846;48.830;9.116;2023-02-21T06:55:04;6.73;;;3.70;;
15488;SDS011;7846;48.830;9.116;2023-02-21T06:57:30;8.77;;;4.40;;
15488;SDS011;7846;48.830;9.116;2023-02-21T06:59:55;6.57;;;3.63;;
15488;SDS011;7846;48.830;9.116;2023-02-21T07:02:20;9.60;;;3.43;;
15488;SDS011;7846;48.830;9.116;2023-02-21T07:04:46;10.80;;;4.07;;
15488;SDS011;7846;48.830;9.116;2023-02-21T07:07:11;5.07;;;3.97;;
15488;SDS011;7846;48.830;9.116;2023-02-21T07:09:37;9.57;;;3.80;;
15488;SDS011;7846;48.830;9.116;2023-02-21T07:12:02;10.63;;;4.07;;
15488;SDS011;7846;48.830;9.116;2023-02-21T07:14:28;8.43;;;3.70;;
15488;SDS011;7846;48.830;9.116;2023-02-21T07:16:53;8.47;;;3.90;;
15488;SDS011;7846;48.830;9.116;2023-02-21T07:19:19;6.40;;;3.53;;
15488;SDS011;7846;48.830;9.116;2023-02-21T07:21:44;8.07;;;4.00;;
15488;SDS011;7846;48.830;9.116;2023-02-21T07:24:10;7.20;;;3.80;;
15488;SDS011;7846;48.830;9.116;2023-02-21T07:26:35;5.03;;;3.17;;
15488;SDS011;7846;48.830;9.116;2023-02-21T07:29:02;7.90;;;3.80;;
15488;SDS011;7846;48.830;9.116;2023-02-21T07:31:28;5.67;;;3.60;;
15488;SDS011;7846;48.830;9.116;2023-02-21T07:33:53;5.83;;;3.70;;
15488;SDS011;7846;48.830;9.116;2023-02-21T07:36:18;7.17;;;3.80;;
15488;SDS011;7846;48.830;9.116;2023-02-21T07:38:44;11.10;;;4.00;;
15488;SDS011;7846;48.830;9.116;2023-02-21T07:41:09;8.80;;;3.43;;
15488;SDS011;7846;48.830;9.116;2023-02-21T07:43:35;7.27;;;3.60;;
15488;SDS011;7846;48.830;9.116;2023-02-21T07:46:01;10.33;;;3.53;;
15488;SDS011;7846;48.830;9.116;2023-02-21T07:48:27;6.30;;;3.40;;
15488;SDS011;7846;48.830;9.116;2023-02-21T07:50:52;9.13;;;3.70;;
15488;SDS011;7846;48.830;9.116;2023-02-21T07:53:18;11.60;;;3.77;;
15488;SDS011;7846;48.830;9.116;2023-02-21T07:55:43;7.80;;;3.90;;
15488;SDS011;7846;48.830;9.116;2023-02-21T07:58:08;7.33;;;3.70;;
15488;SDS011;7846;48.830;9.116;2023-02-21T08:00:34;7.90;;;3.90;;
15488;SDS011;7846;48.830;9.116;2023-02-21T08:03:00;6.77;;;3.63;;
15488;SDS011;7846;48.830;9.116;2023-02-21T08:05:26;11.53;;;4.30;;
15488;SDS011;7846;48.830;9.116;2023-02-21T08:07:51;10.10;;;4.13;;
15488;SDS011;7846;48.830;9.116;2023-02-21T08:10:24;7.70;;;4.47;;
15488;SDS011;7846;48.830;9.116;2023-02-21T08:12:51;7.53;;;3.80;;
15488;SDS011;7846;48.830;9.116;2023-02-21T08:15:19;11.97;;;4.30;;
15488;SDS011;7846;48.830;9.116;2023-02-21T08:17:47;4.73;;;3.37;;
15488;SDS011;7846;48.830;9.116;2023-02-21T08:20:13;5.77;;;3.30;;
15488;SDS011;7846;48.830;9.116;2023-02-21T08:22:39;7.17;;;3.70;;
15488;SDS011;7846;48.830;9.116;2023-02-21T08:25:05;7.67;;;3.47;;
15488;SDS011;7846;48.830;9.116;2023-02-21T08:27:31;10.73;;;4.20;;
15488;SDS011;7846;48.830;9.116;2023-02-21T08:29:58;5.77;;;3.53;;
15488;SDS011;7846;48.830;9.116;2023-02-21T08:32:23;8.97;;;3.93;;
15488;SDS011;7846;48.830;9.116;2023-02-21T08:34:49;5.47;;;3.67;;
15488;SDS011;7846;48.830;9.116;2023-02-21T08:37:16;4.17;;;3.50;;
15488;SDS011;7846;48.830;9.116;2023-02-21T08:39:46;5.03;;;3.70;;
15488;SDS011;7846;48.830;9.116;2023-02-21T08:42:13;7.40;;;3.97;;
15488;SDS011;7846;48.830;9.116;2023-02-21T08:44:38;4.40;;;3.57;;
15488;SDS011;7846;48.830;9.116;2023-02-21T08:47:04;7.97;;;3.70;;
15488;SDS011;7846;48.830;9.116;2023-02-21T08:49:30;7.73;;;4.37;;
15488;SDS011;7846;48.830;9.116;2023-02-21T08:51:56;7.27;;;4.13;;
15488;SDS011;7846;48.830;9.116;2023-02-21T08:54:23;6.93;;;3.70;;
15488;SDS011;7846;48.830;9.116;2023-02-21T08:56:50;8.50;;;4.03;;
15488;SDS011;7846;48.830;9.116;2023-02-21T08:59:18;5.13;;;3.90;;
15488;SDS011;7846;48.830;9.116;2023-02-21T09:01:43;8.40;;;3.67;;
15488;SDS011;7846;48.830;9.116;2023-02-21T09:04:10;5.67;;;3.80;;
15488;SDS011;7846;48.830;9.116;2023-02-21T09:06:35;8.03;;;3.83;;
15488;SDS011;7846;48.830;9.116;2023-02-21T09:09:02;7.33;;;4.20;;
15488;SDS011;7846;48.830;9.116;2023-02-21T09:11:28;11.97;;;4.60;;
15488;SDS011;7846;48.830;9.116;2023-02-21T09:13:55;7.20;;;4.10;;
15488;SDS011;7846;48.830;9.116;2023-02-21T09:16:23;9.30;;;4.23;;
15488;SDS011;7846;48.830;9.116;2023-02-21T09:18:56;12.27;;;4.67;;
15488;SDS011;7846;48.830;9.116;2023-02-21T09:21:25;8.60;;;4.20;;
15488;SDS011;7846;48.830;9.116;2023-02-21T09:23:52;8.53;;;3.83;;
15488;SDS011;7846;48.830;9.116;2023-02-21T09:26:18;7.20;;;3.63;;
15488;SDS011;7846;48.830;9.116;2023-02-21T09:28:46;6.07;;;3.50;;
15488;SDS011;7846;48.830;9.116;2023-02-21T09:31:11;5.57;;;3.60;;
15488;SDS011;7846;48.830;9.116;2023-02-21T09:33:37;4.77;;;3.47;;
15488;SDS011;7846;48.830;9.116;2023-02-21T09:36:09;5.97;;;3.60;;
15488;SDS011;7846;48.830;9.116;2023-02-21T09:38:35;7.33;;;3.37;;
15488;SDS011;7846;48.830;9.116;2023-02-21T09:41:01;6.57;;;3.00;;
15488;SDS011;7846;48.830;9.116;2023-02-21T09:48:58;9.63;;;3.40;;
15488;SDS011;7846;48.830;9.116;2023-02-21T09:51:25;5.33;;;2.67;;
15488;SDS011;7846;48.830;9.116;2023-02-21T09:53:51;6.17;;;3.00;;
15488;SDS011;7846;48.830;9.116;2023-02-21T09:56:41;5.30;;;3.13;;
15488;SDS011;7846;48.830;9.116;2023-02-21T09:59:09;4.93;;;2.43;;
15488;SDS011;7846;48.830;9.116;2023-02-21T10:04:47;4.50;;;2.70;;
15488;SDS011;7846;48.830;9.116;2023-02-21T10:08:08;8.23;;;2.50;;
15488;SDS011;7846;48.830;9.116;2023-02-21T10:14:03;3.37;;;2.40;;
15488;SDS011;7846;48.830;9.116;2023-02-21T10:19:19;6.00;;;2.37;;
15488;SDS011;7846;48.830;9.116;2023-02-21T10:21:50;2.63;;;1.67;;
15488;SDS011;7846;48.830;9.116;2023-02-21T10:24:20;3.00;;;1.60;;
15488;SDS011;7846;48.830;9.116;2023-02-21T10:26:52;3.27;;;1.87;;
15488;SDS011;7846;48.830;9.116;2023-02-21T10:29:25;4.53;;;2.10;;
15488;SDS011;7846;48.830;9.116;2023-02-21T10:32:00;3.90;;;1.93;;
15488;SDS011;7846;48.830;9.116;2023-02-21T10:34:28;4.17;;;2.07;;
15488;SDS011;7846;48.830;9.116;2023-02-21T10:36:57;3.70;;;2.10;;
15488;SDS011;7846;48.830;9.116;2023-02-21T10:39:51;2.30;;;1.87;;
15488;SDS011;7846;48.830;9.116;2023-02-21T10:42:18;4.90;;;1.97;;
15488;SDS011;7846;48.830;9.116;2023-02-21T10:44:52;3.97;;;2.30;;
15488;SDS011;7846;48.830;9.116;2023-02-21T10:47:37;3.10;;;2.00;;
15488;SDS011;7846;48.830;9.116;2023-02-21T10:50:12;3.93;;;2.03;;
15488;SDS011;7846;48.830;9.116;2023-02-21T10:52:45;3.30;;;2.30;;
15488;SDS011;7846;48.830;9.116;2023-02-21T10:55:15;4.13;;;2.50;;
15488;SDS011;7846;48.830;9.116;2023-02-21T10:57:48;4.30;;;2.60;;
15488;SDS011;7846;48.830;9.116;2023-02-21T11:00:24;3.20;;;2.60;;
15488;SDS011;7846;48.830;9.116;2023-02-21T11:02:55;6.90;;;2.70;;
15488;SDS011;7846;48.830;9.116;2023-02-21T11:05:26;4.83;;;2.60;;
15488;SDS011;7846;48.830;9.116;2023-02-21T11:08:05;6.70;;;2.70;;
15488;SDS011;7846;48.830;9.116;2023-02-21T11:10:34;4.03;;;2.27;;
15488;SDS011;7846;48.830;9.116;2023-02-21T11:13:15;4.33;;;2.70;;
15488;SDS011;7846;48.830;9.116;2023-02-21T11:15:42;5.67;;;2.60;;
15488;SDS011;7846;48.830;9.116;2023-02-21T11:20:47;4.77;;;2.60;;
15488;SDS011;7846;48.830;9.116;2023-02-21T11:23:16;6.17;;;2.90;;
15488;SDS011;7846;48.830;9.116;2023-02-21T11:25:48;4.33;;;3.00;;
15488;SDS011;7846;48.830;9.116;2023-02-21T11:28:19;7.67;;;3.00;;
15488;SDS011;7846;48.830;9.116;2023-02-21T11:33:27;5.10;;;2.73;;
15488;SDS011;7846;48.830;9.116;2023-02-21T11:36:05;4.23;;;2.60;;
15488;SDS011;7846;48.830;9.116;2023-02-21T11:38:40;7.00;;;2.83;;
15488;SDS011;7846;48.830;9.116;2023-02-21T11:43:46;9.07;;;2.60;;
15488;SDS011;7846;48.830;9.116;2023-02-21T11:49:05;6.80;;;2.97;;
15488;SDS011;7846;48.830;9.116;2023-02-21T11:51:53;4.80;;;2.63;;
15488;SDS011;7846;48.830;9.116;2023-02-21T11:54:27;5.10;;;2.80;;
15488;SDS011;7846;48.830;9.116;2023-02-21T11:59:31;3.87;;;2.70;;
15488;SDS011;7846;48.830;9.116;2023-02-21T12:04:59;5.13;;;2.83;;
15488;SDS011;7846;48.830;9.116;2023-02-21T12:16:01;5.67;;;2.73;;
15488;SDS011;7846;48.830;9.116;2023-02-21T12:21:38;3.80;;;2.70;;
15488;SDS011;7846;48.830;9.116;2023-02-21T12:27:07;5.60;;;2.83;;
15488;SDS011;7846;48.830;9.116;2023-02-21T12:38:21;5.33;;;2.63;;
15488;SDS011;7846;48.830;9.116;2023-02-21T12:41:13;4.20;;;2.33;;
15488;SDS011;7846;48.830;9.116;2023-02-21T12:46:38;7.03;;;2.37;;
15488;SDS011;7846;48.830;9.116;2023-02-21T12:49:22;4.70;;;2.40;;
15488;SDS011;7846;48.830;9.116;2023-02-21T12:51:57;4.00;;;2.50;;
15488;SDS011;7846;48.830;9.116;2023-02-21T12:57:09;3.53;;;2.40;;
15488;SDS011;7846;48.830;9.116;2023-02-21T12:59:54;4.30;;;2.50;;
15488;SDS011;7846;48.830;9.116;2023-02-21T13:02:42;5.97;;;2.53;;
15488;SDS011;7846;48.830;9.116;2023-02-21T13:05:24;3.30;;;2.17;;
15488;SDS011;7846;48.830;9.116;2023-02-21T13:08:03;2.70;;;2.50;;
15488;SDS011;7846;48.830;9.116;2023-02-21T13:11:06;5.77;;;2.30;;
15488;SDS011;7846;48.830;9.116;2023-02-21T13:13:37;5.53;;;2.07;;
15488;SDS011;7846;48.830;9.116;2023-02-21T13:16:04;3.00;;;2.10;;
15488;SDS011;7846;48.830;9.116;2023-02-21T13:18:45;3.80;;;2.30;;
15488;SDS011;7846;48.830;9.116;2023-02-21T13:24:05;4.33;;;2.20;;
15488;SDS011;7846;48.830;9.116;2023-02-21T13:29:28;2.10;;;1.90;;
15488;SDS011;7846;48.830;9.116;2023-02-21T13:31:58;3.53;;;2.00;;
15488;SDS011;7846;48.830;9.116;2023-02-21T13:34:28;1.93;;;1.80;;
15488;SDS011;7846;48.830;9.116;2023-02-21T13:37:05;3.20;;;2.20;;
15488;SDS011;7846;48.830;9.116;2023-02-21T13:39:33;3.97;;;1.90;;
15488;SDS011;7846;48.830;9.116;2023-02-21T13:44:37;2.50;;;2.10;;
15488;SDS011;7846;48.830;9.116;2023-02-21T13:47:12;2.60;;;1.80;;
15488;SDS011;7846;48.830;9.116;2023-02-21T13:57:44;5.83;;;2.00;;
15488;SDS011;7846;48.830;9.116;2023-02-21T14:08:14;2.03;;;1.50;;
15488;SDS011;7846;48.830;9.116;2023-02-21T14:10:47;3.77;;;1.60;;
15488;SDS011;7846;48.830;9.116;2023-02-21T14:13:17;1.80;;;1.47;;
15488;SDS011;7846;48.830;9.116;2023-02-21T14:15:46;2.23;;;1.67;;
15488;SDS011;7846;48.830;9.116;2023-02-21T14:18:16;1.63;;;1.40;;
15488;SDS011;7846;48.830;9.116;2023-02-21T14:20:46;2.63;;;1.50;;
15488;SDS011;7846;48.830;9.116;2023-02-21T14:23:15;3.27;;;1.60;;
15488;SDS011;7846;48.830;9.116;2023-02-21T14:25:52;2.30;;;1.50;;
15488;SDS011;7846;48.830;9.116;2023-02-21T14:31:13;4.87;;;1.50;;
15488;SDS011;7846;48.830;9.116;2023-02-21T14:33:38;1.70;;;1.60;;
15488;SDS011;7846;48.830;9.116;2023-02-21T14:36:05;1.93;;;1.50;;
15488;SDS011;7846;48.830;9.116;2023-02-21T14:38:35;4.73;;;1.50;;
15488;SDS011;7846;48.830;9.116;2023-02-21T14:43:51;2.90;;;1.40;;
15488;SDS011;7846;48.830;9.116;2023-02-21T14:46:37;1.60;;;1.47;;
15488;SDS011;7846;48.830;9.116;2023-02-21T14:49:26;2.53;;;1.60;;
15488;SDS011;7846;48.830;9.116;2023-02-21T14:55:07;2.77;;;1.60;;
15488;SDS011;7846;48.830;9.116;2023-02-21T14:57:53;1.73;;;1.53;;
15488;SDS011;7846;48.830;9.116;2023-02-21T15:05:55;2.90;;;1.73;;
15488;SDS011;7846;48.830;9.116;2023-02-21T15:08:27;1.50;;;1.40;;
15488;SDS011;7846;48.830;9.116;2023-02-21T15:10:54;2.20;;;1.40;;
15488;SDS011;7846;48.830;9.116;2023-02-21T15:16:06;3.80;;;1.40;;
15488;SDS011;7846;48.830;9.116;2023-02-21T15:18:37;2.37;;;1.50;;
15488;SDS011;7846;48.830;9.116;2023-02-21T15:21:14;5.13;;;1.80;;
15488;SDS011;7846;48.830;9.116;2023-02-21T15:23:45;3.93;;;1.83;;
15488;SDS011;7846;48.830;9.116;2023-02-21T15:26:17;3.20;;;1.80;;
15488;SDS011;7846;48.830;9.116;2023-02-21T15:29:10;2.90;;;1.70;;
15488;SDS011;7846;48.830;9.116;2023-02-21T15:31:46;1.70;;;1.60;;
15488;SDS011;7846;48.830;9.116;2023-02-21T15:34:14;2.63;;;1.90;;
15488;SDS011;7846;48.830;9.116;2023-02-21T15:36:43;2.17;;;1.87;;
15488;SDS011;7846;48.830;9.116;2023-02-21T15:39:20;2.70;;;1.87;;
15488;SDS011;7846;48.830;9.116;2023-02-21T15:41:51;2.30;;;2.10;;
15488;SDS011;7846;48.830;9.116;2023-02-21T15:44:19;4.77;;;1.80;;
15488;SDS011;7846;48.830;9.116;2023-02-21T15:46:52;3.40;;;2.03;;
15488;SDS011;7846;48.830;9.116;2023-02-21T15:49:26;3.87;;;1.80;;
15488;SDS011;7846;48.830;9.116;2023-02-21T15:51:54;2.97;;;2.00;;
15488;SDS011;7846;48.830;9.116;2023-02-21T15:54:29;3.97;;;2.10;;
15488;SDS011;7846;48.830;9.116;2023-02-21T15:57:25;3.57;;;2.27;;
15488;SDS011;7846;48.830;9.116;2023-02-21T16:02:44;3.43;;;2.20;;
15488;SDS011;7846;48.830;9.116;2023-02-21T16:05:22;2.50;;;2.03;;
15488;SDS011;7846;48.830;9.116;2023-02-21T16:07:49;5.07;;;3.00;;
15488;SDS011;7846;48.830;9.116;2023-02-21T16:10:19;3.17;;;2.63;;
15488;SDS011;7846;48.830;9.116;2023-02-21T16:12:52;4.37;;;3.00;;
15488;SDS011;7846;48.830;9.116;2023-02-21T16:15:26;5.83;;;2.50;;
15488;SDS011;7846;48.830;9.116;2023-02-21T16:18:16;8.90;;;3.50;;
15488;SDS011;7846;48.830;9.116;2023-02-21T16:20:43;4.53;;;3.33;;
15488;SDS011;7846;48.830;9.116;2023-02-21T16:26:57;2.90;;;1.90;;
15488;SDS011;7846;48.830;9.116;2023-02-21T16:28:40;3.27;;;2.00;;
15488;SDS011;7846;48.830;9.116;2023-02-21T16:31:08;4.80;;;1.93;;
15488;SDS011;7846;48.830;9.116;2023-02-21T16:33:40;5.30;;;1.90;;
15488;SDS011;7846;48.830;9.116;2023-02-21T16:36:06;3.37;;;1.97;;
15488;SDS011;7846;48.830;9.116;2023-02-21T16:38:34;4.03;;;2.23;;
15488;SDS011;7846;48.830;9.116;2023-02-21T16:40:59;5.27;;;2.27;;
15488;SDS011;7846;48.830;9.116;2023-02-21T16:43:26;4.73;;;2.30;;
15488;SDS011;7846;48.830;9.116;2023-02-21T16:45:54;4.63;;;2.73;;
15488;SDS011;7846;48.830;9.116;2023-02-21T16:48:22;3.63;;;2.17;;
15488;SDS011;7846;48.830;9.116;2023-02-21T16:50:51;3.70;;;2.40;;
15488;SDS011;7846;48.830;9.116;2023-02-21T16:53:17;4.97;;;2.37;;
15488;SDS011;7846;48.830;9.116;2023-02-21T16:55:43;4.03;;;2.70;;
15488;SDS011;7846;48.830;9.116;2023-02-21T16:58:17;3.77;;;2.37;;
15488;SDS011;7846;48.830;9.116;2023-02-21T17:00:51;7.30;;;3.10;;
15488;SDS011;7846;48.830;9.116;2023-02-21T17:03:18;6.73;;;3.73;;
15488;SDS011;7846;48.830;9.116;2023-02-21T17:05:43;6.67;;;2.90;;
15488;SDS011;7846;48.830;9.116;2023-02-21T17:08:10;4.30;;;2.70;;
15488;SDS011;7846;48.830;9.116;2023-02-21T17:10:36;5.93;;;3.00;;
15488;SDS011;7846;48.830;9.116;2023-02-21T17:13:02;7.13;;;4.23;;
15488;SDS011;7846;48.830;9.116;2023-02-21T17:15:28;3.93;;;2.60;;
15488;SDS011;7846;48.830;9.116;2023-02-21T17:17:53;5.20;;;3.07;;
15488;SDS011;7846;48.830;9.116;2023-02-21T17:20:19;5.93;;;3.00;;
15488;SDS011;7846;48.830;9.116;2023-02-21T17:22:46;9.23;;;3.53;;
15488;SDS011;7846;48.830;9.116;2023-02-21T17:25:13;6.10;;;3.20;;
15488;SDS011;7846;48.830;9.116;2023-02-21T17:27:39;7.33;;;3.27;;
15488;SDS011;7846;48.830;9.116;2023-02-21T17:30:05;9.57;;;3.00;;
15488;SDS011;7846;48.830;9.116;2023-02-21T17:32:31;12.03;;;3.07;;
15488;SDS011;7846;48.830;9.116;2023-02-21T17:34:56;6.27;;;3.13;;
15488;SDS011;7846;48.830;9.116;2023-02-21T17:37:22;8.93;;;3.50;;
15488;SDS011;7846;48.830;9.116;2023-02-21T17:39:51;6.67;;;2.83;;
15488;SDS011;7846;48.830;9.116;2023-02-21T17:42:17;7.10;;;2.90;;
15488;SDS011;7846;48.830;9.116;2023-02-21T17:44:43;8.47;;;3.13;;